Time;durP1;ratioP1;P1;durP2;ratioP2;P2;SDS_P1;SDS_P2;PMS_P1;PMS_P2;Temp;Humidity;BMP_temperature;BMP_pressure;BME280_temperature;BME280_humidity;BME280_pressure;Samples;Min_cycle;Max_cycle;Signal;HPM_P1;HPM_P2
2023/01/31 00:00:53;;;;;;;31.88;4.88;;;;;;;2.71;100.00;102199.81;4995600;28;20928;-79
2023/01/31 00:03:18;;;;;;;32.22;3.67;;;;;;;2.77;100.00;102204.69;4990956;28;20062;-79
2023/01/31 00:05:44;;;;;;;19.42;4.00;;;;;;;2.59;100.00;102206.34;4991023;28;20025;-79
2023/01/31 00:08:11;;;;;;;26.63;3.97;;;;;;;2.58;100.00;102209.81;4988637;28;20111;-79
2023/01/31 00:10:36;;;;;;;31.33;3.97;;;;;;;2.55;100.00;102209.13;4993201;28;20064;-78
2023/01/31 00:13:02;;;;;;;36.67;4.13;;;;;;;2.55;100.00;102209.94;5007807;28;20042;-78
2023/01/31 00:15:27;;;;;;;19.45;3.55;;;;;;;2.55;100.00;102209.13;4990287;28;20030;-79
2023/01/31 00:17:54;;;;;;;29.77;3.63;;;;;;;2.48;100.00;102206.81;5009297;28;20211;-78
2023/01/31 00:20:20;;;;;;;27.77;4.55;;;;;;;2.56;100.00;102216.72;4990224;28;20030;-78
2023/01/31 00:22:45;;;;;;;31.50;4.90;;;;;;;2.47;100.00;102212.84;4988078;28;20057;-78
2023/01/31 00:25:11;;;;;;;23.38;4.97;;;;;;;2.47;100.00;102209.47;5019683;28;20037;-78
2023/01/31 00:27:36;;;;;;;33.25;4.13;;;;;;;2.51;100.00;102214.38;5004028;28;20033;-79
2023/01/31 00:30:02;;;;;;;29.40;5.75;;;;;;;2.38;100.00;102204.75;4992166;28;20048;-78
2023/01/31 00:32:28;;;;;;;37.72;5.15;;;;;;;2.39;100.00;102206.41;5003532;28;20029;-78
2023/01/31 00:34:54;;;;;;;26.63;5.35;;;;;;;2.28;100.00;102199.19;5010912;28;20059;-78
2023/01/31 00:37:20;;;;;;;31.13;4.32;;;;;;;2.21;100.00;102205.50;4989498;28;20049;-78
2023/01/31 00:39:46;;;;;;;17.38;3.92;;;;;;;2.11;100.00;102211.00;5011636;28;20029;-78
2023/01/31 00:42:15;;;;;;;22.63;4.38;;;;;;;2.08;100.00;102211.13;5009555;28;20029;-78
2023/01/31 00:44:40;;;;;;;24.35;4.60;;;;;;;2.05;100.00;102210.44;4989872;28;20063;-78
2023/01/31 00:47:06;;;;;;;31.95;5.38;;;;;;;2.09;100.00;102217.06;4992930;28;20037;-79
2023/01/31 00:49:31;;;;;;;24.58;4.93;;;;;;;2.26;100.00;102229.13;4997668;28;20486;-78
2023/01/31 00:51:57;;;;;;;23.60;4.03;;;;;;;2.15;100.00;102209.16;5009531;28;20045;-79
2023/01/31 00:54:23;;;;;;;32.58;4.95;;;;;;;2.18;100.00;102215.84;5008425;28;20417;-78
2023/01/31 00:56:49;;;;;;;32.65;4.50;;;;;;;2.32;100.00;102213.53;5005325;28;20026;-79
2023/01/31 00:59:14;;;;;;;26.80;4.25;;;;;;;2.24;100.00;102213.03;4986202;28;20049;-80
2023/01/31 01:01:40;;;;;;;41.13;4.82;;;;;;;2.37;100.00;102218.44;4985470;28;20036;-78
2023/01/31 01:04:05;;;;;;;29.50;3.30;;;;;;;2.39;100.00;102211.50;5009414;28;20029;-79
2023/01/31 01:06:32;;;;;;;20.13;4.18;;;;;;;2.28;100.00;102220.53;5008115;28;20486;-79
2023/01/31 01:08:58;;;;;;;24.33;3.92;;;;;;;2.32;100.00;102221.22;4988831;28;20044;-77
2023/01/31 01:11:30;;;;;;;18.42;3.50;;;;;;;2.30;100.00;102221.28;5005651;28;20087;-77
2023/01/31 01:13:58;;;;;;;27.70;4.15;;;;;;;2.20;100.00;102214.06;5005374;28;20520;-77
2023/01/31 01:16:33;;;;;;;26.30;4.72;;;;;;;2.28;100.00;102222.22;5014959;28;20041;-78
2023/01/31 01:19:04;;;;;;;32.85;5.15;;;;;;;2.19;100.00;102213.25;4998286;28;21517;-78
2023/01/31 01:21:31;;;;;;;29.98;4.85;;;;;;;2.12;100.00;102217.78;5003672;28;20030;-78
2023/01/31 01:24:01;;;;;;;32.92;5.13;;;;;;;2.07;100.00;102214.59;4991177;28;20037;-78
2023/01/31 01:26:29;;;;;;;21.02;4.22;;;;;;;2.28;100.00;102210.28;5010756;28;20562;-78
2023/01/31 01:28:56;;;;;;;41.33;4.47;;;;;;;2.17;100.00;102202.25;4998761;28;20041;-78
2023/01/31 01:31:28;;;;;;;25.80;4.45;;;;;;;2.16;100.00;102210.81;5002618;28;20040;-78
2023/01/31 01:34:05;;;;;;;30.95;4.03;;;;;;;2.08;100.00;102212.88;5005412;28;20565;-77
2023/01/31 01:36:33;;;;;;;32.65;5.43;;;;;;;2.08;100.00;102202.63;5011119;28;20041;-78
2023/01/31 01:38:58;;;;;;;29.98;4.50;;;;;;;2.04;100.00;102201.94;5017665;28;20120;-78
2023/01/31 01:41:24;;;;;;;34.88;5.50;;;;;;;2.03;100.00;102191.75;5005469;28;20041;-78
2023/01/31 01:43:55;;;;;;;31.33;5.45;;;;;;;2.17;100.00;102186.03;4990461;28;21029;-78
2023/01/31 01:46:30;;;;;;;28.45;4.35;;;;;;;2.10;100.00;102198.28;5018416;28;20225;-78
2023/01/31 01:49:33;;;;;;;19.52;3.60;;;;;;;2.28;100.00;102196.63;5015945;28;20462;-78
2023/01/31 01:52:04;;;;;;;22.80;5.32;;;;;;;2.18;100.00;102193.66;4989773;28;20056;-78
2023/01/31 01:54:47;;;;;;;22.77;4.72;;;;;;;2.10;100.00;102195.72;5009832;28;20040;-78
2023/01/31 01:57:19;;;;;;;29.25;4.07;;;;;;;1.98;100.00;102189.41;5012905;28;20042;-78
2023/01/31 02:00:00;;;;;;;21.35;3.50;;;;;;;1.93;100.00;102193.88;5006375;28;20482;-78
2023/01/31 02:02:25;;;;;;;33.97;5.25;;;;;;;1.98;100.00;102191.97;5012055;28;20040;-78
2023/01/31 02:04:51;;;;;;;35.40;4.35;;;;;;;2.01;100.00;102194.38;5012385;28;20037;-78
2023/01/31 02:07:17;;;;;;;20.10;3.60;;;;;;;2.01;100.00;102201.22;5002135;28;20041;-78
2023/01/31 02:10:07;;;;;;;30.45;4.38;;;;;;;1.93;100.00;102206.69;4994836;28;20038;-78
2023/01/31 02:12:34;;;;;;;31.00;4.20;;;;;;;1.90;100.00;102206.81;5005863;28;20041;-78
2023/01/31 02:15:00;;;;;;;23.83;4.18;;;;;;;2.02;100.00;102197.78;5004238;28;20041;-77
2023/01/31 02:17:25;;;;;;;31.08;4.93;;;;;;;1.89;100.00;102207.72;5015966;28;20037;-78
2023/01/31 02:20:29;;;;;;;27.35;4.28;;;;;;;1.83;100.00;102198.56;5002198;28;20040;-78
2023/01/31 02:23:30;;;;;;;32.00;4.72;;;;;;;1.75;100.00;102193.78;5005946;28;20084;-78
2023/01/31 02:26:12;;;;;;;26.25;4.40;;;;;;;1.78;100.00;102202.22;5012881;28;20081;-78
2023/01/31 02:29:32;;;;;;;22.83;4.38;;;;;;;1.83;100.00;102203.69;5011012;28;20465;-78
2023/01/31 02:32:20;;;;;;;26.02;3.90;;;;;;;1.74;100.00;102209.19;4926047;28;21569;-79
2023/01/31 02:34:55;;;;;;;23.85;5.43;;;;;;;1.65;100.00;102212.94;4987630;28;20372;-77
2023/01/31 02:37:33;;;;;;;25.42;4.90;;;;;;;1.70;100.00;102218.72;5006911;28;20418;-78
2023/01/31 02:40:38;;;;;;;29.45;5.07;;;;;;;1.67;100.00;102218.00;5008256;28;20037;-78
2023/01/31 02:43:22;;;;;;;28.25;5.45;;;;;;;1.69;100.00;102218.78;4954717;28;20040;-78
2023/01/31 02:45:59;;;;;;;33.60;5.15;;;;;;;1.66;100.00;102217.19;5026389;28;20071;-78
2023/01/31 02:48:34;;;;;;;22.98;4.03;;;;;;;1.65;100.00;102217.25;5005708;28;20629;-78
2023/01/31 02:51:06;;;;;;;31.60;5.43;;;;;;;1.79;100.00;102211.53;5013098;28;20053;-77
2023/01/31 02:53:36;;;;;;;35.17;6.18;;;;;;;1.73;100.00;102210.94;4993376;28;20052;-78
2023/01/31 02:56:19;;;;;;;18.15;5.07;;;;;;;1.76;100.00;102207.41;5003168;28;20156;-78
2023/01/31 02:59:00;;;;;;;26.63;5.22;;;;;;;1.68;100.00;102205.16;5004768;28;20048;-78
2023/01/31 03:01:29;;;;;;;27.90;6.05;;;;;;;1.69;100.00;102203.44;5007226;28;20056;-78
2023/01/31 03:04:10;;;;;;;22.05;5.05;;;;;;;1.68;100.00;102204.34;5010028;28;20042;-78
2023/01/31 03:06:36;;;;;;;22.70;4.47;;;;;;;1.68;100.00;102200.03;5011838;28;20197;-78
2023/01/31 03:09:27;;;;;;;25.92;4.97;;;;;;;1.68;100.00;102196.66;4990735;28;20122;-80
2023/01/31 03:12:30;;;;;;;19.08;4.68;;;;;;;1.53;100.00;102193.00;5005515;28;20025;-78
2023/01/31 03:15:12;;;;;;;33.35;6.45;;;;;;;1.47;100.00;102181.31;5007019;28;20053;-77
2023/01/31 03:18:06;;;;;;;26.23;5.00;;;;;;;1.60;100.00;102189.31;5003924;28;20140;-78
2023/01/31 03:21:11;;;;;;;22.65;4.55;;;;;;;1.57;100.00;102188.59;5007242;28;20034;-78
2023/01/31 03:23:40;;;;;;;38.50;5.75;;;;;;;1.62;100.00;102179.84;5004735;28;20044;-78
2023/01/31 03:26:06;;;;;;;37.05;5.60;;;;;;;1.57;100.00;102179.19;4993991;28;20033;-77
2023/01/31 03:28:39;;;;;;;34.05;6.15;;;;;;;1.66;100.00;102171.16;5002326;28;20431;-78
2023/01/31 03:31:13;;;;;;;37.67;5.93;;;;;;;1.49;100.00;102169.31;4999094;28;20034;-78
2023/01/31 03:33:42;;;;;;;24.35;6.10;;;;;;;1.50;100.00;102160.72;4989841;28;20057;-78
2023/01/31 03:36:19;;;;;;;30.70;7.00;;;;;;;1.47;100.00;102160.88;4998169;28;20389;-78
2023/01/31 03:39:04;;;;;;;34.60;5.93;;;;;;;1.41;100.00;102161.09;5008521;28;20037;-78
2023/01/31 03:41:33;;;;;;;26.23;5.57;;;;;;;1.32;100.00;102161.50;5007718;28;20030;-78
2023/01/31 03:44:13;;;;;;;39.38;6.78;;;;;;;1.46;100.00;102166.84;4992688;28;20133;-78
2023/01/31 03:46:44;;;;;;;23.17;7.10;;;;;;;1.47;100.00;102165.13;4990375;28;20037;-78
2023/01/31 03:49:14;;;;;;;28.05;7.60;;;;;;;1.51;100.00;102159.84;4994961;28;20029;-78
2023/01/31 03:51:45;;;;;;;47.05;11.55;;;;;;;1.39;100.00;102157.78;4997627;28;21730;-77
2023/01/31 03:54:17;;;;;;;37.55;8.48;;;;;;;1.44;100.00;102155.88;5007584;28;20368;-78
2023/01/31 03:57:01;;;;;;;36.08;7.85;;;;;;;1.47;100.00;102163.41;4988664;28;20032;-78
2023/01/31 03:59:31;;;;;;;58.58;10.50;;;;;;;1.53;100.00;102154.66;5007027;28;20080;-77
2023/01/31 04:02:00;;;;;;;48.92;9.82;;;;;;;1.53;100.00;102150.38;5017984;28;20393;-78
2023/01/31 04:04:40;;;;;;;43.90;9.70;;;;;;;1.41;100.00;102145.75;5000649;28;20025;-78
2023/01/31 04:07:07;;;;;;;36.20;9.88;;;;;;;1.36;100.00;102150.25;4984206;28;20033;-78
2023/01/31 04:09:37;;;;;;;42.72;11.75;;;;;;;1.32;100.00;102147.00;5005713;28;20603;-78
2023/01/31 04:12:03;;;;;;;50.33;13.98;;;;;;;1.44;100.00;102145.63;5004156;28;20041;-78
2023/01/31 04:14:29;;;;;;;45.65;12.95;;;;;;;1.53;100.00;102141.88;5011366;28;20033;-77
2023/01/31 04:16:54;;;;;;;76.60;23.05;;;;;;;1.57;100.00;102140.84;5025428;28;20033;-78
2023/01/31 04:19:19;;;;;;;58.35;16.20;;;;;;;1.59;100.00;102136.50;5006292;28;20029;-78
2023/01/31 04:21:45;;;;;;;60.65;20.00;;;;;;;1.58;100.00;102129.72;5004553;28;20041;-78
2023/01/31 04:24:10;;;;;;;43.50;11.93;;;;;;;1.63;100.00;102124.41;5010515;28;20041;-83
2023/01/31 04:26:36;;;;;;;42.35;10.40;;;;;;;1.73;100.00;102131.63;5012529;28;20037;-78
2023/01/31 04:29:02;;;;;;;42.42;9.18;;;;;;;1.70;100.00;102136.88;5025148;28;20040;-78
2023/01/31 04:31:28;;;;;;;38.00;11.27;;;;;;;1.67;100.00;102133.63;5010243;28;20402;-78
2023/01/31 04:33:53;;;;;;;47.40;10.00;;;;;;;1.76;100.00;102138.34;5010199;28;20045;-78
2023/01/31 04:36:18;;;;;;;41.33;10.10;;;;;;;1.68;100.00;102135.28;4995706;28;20045;-77
2023/01/31 04:38:44;;;;;;;36.00;11.50;;;;;;;1.61;100.00;102137.25;5004786;28;20041;-78
2023/01/31 04:41:09;;;;;;;39.88;8.77;;;;;;;1.64;100.00;102134.59;5002487;28;20037;-78
2023/01/31 04:43:35;;;;;;;35.03;9.48;;;;;;;1.69;100.00;102130.09;5019460;28;20029;-78
2023/01/31 04:46:00;;;;;;;48.15;8.80;;;;;;;1.68;100.00;102137.84;4997563;28;20525;-78
2023/01/31 04:48:26;;;;;;;34.28;10.05;;;;;;;1.64;100.00;102142.25;4993477;28;20029;-78
2023/01/31 04:50:51;;;;;;;41.22;8.88;;;;;;;1.69;100.00;102140.31;5006080;28;20037;-78
2023/01/31 04:53:17;;;;;;;38.90;8.90;;;;;;;1.66;100.00;102132.78;5010106;28;20033;-79
2023/01/31 04:55:42;;;;;;;46.53;11.07;;;;;;;1.78;100.00;102139.09;5011596;28;20033;-78
2023/01/31 04:58:08;;;;;;;46.25;10.85;;;;;;;1.78;100.00;102133.97;5027685;28;20038;-76
2023/01/31 05:00:33;;;;;;;39.55;11.75;;;;;;;1.82;100.00;102122.72;5006543;28;20038;-77
2023/01/31 05:02:59;;;;;;;38.33;8.98;;;;;;;1.88;100.00;102124.19;4998996;28;20041;-77
2023/01/31 05:05:25;;;;;;;34.70;9.82;;;;;;;1.97;100.00;102122.94;5016747;28;20033;-78
2023/01/31 05:07:51;;;;;;;44.33;9.95;;;;;;;2.04;100.00;102117.50;5012651;28;20095;-78
2023/01/31 05:10:17;;;;;;;41.47;9.48;;;;;;;2.05;100.00;102110.63;5006543;28;20022;-77
2023/01/31 05:12:42;;;;;;;36.83;10.00;;;;;;;1.97;100.00;102113.53;5016365;28;20037;-78
2023/01/31 05:15:10;;;;;;;46.80;10.23;;;;;;;1.99;100.00;102103.25;4995852;28;20041;-78
2023/01/31 05:17:36;;;;;;;41.03;11.27;;;;;;;2.01;100.00;102109.94;4989239;28;20378;-78
2023/01/31 05:20:01;;;;;;;40.95;10.32;;;;;;;2.07;100.00;102099.44;5005115;28;20394;-78
2023/01/31 05:22:27;;;;;;;48.00;11.05;;;;;;;2.13;100.00;102113.69;5008131;28;20045;-79
2023/01/31 05:24:52;;;;;;;37.88;11.65;;;;;;;2.05;100.00;102102.97;5006183;28;20052;-78
2023/01/31 05:27:18;;;;;;;49.50;11.05;;;;;;;2.12;100.00;102097.50;4992412;28;20574;-77
2023/01/31 05:29:44;;;;;;;42.05;10.75;;;;;;;2.18;100.00;102101.50;5001219;28;20071;-78
2023/01/31 05:32:10;;;;;;;48.65;11.68;;;;;;;2.23;100.00;102093.63;5009159;28;20103;-78
2023/01/31 05:34:36;;;;;;;48.13;10.25;;;;;;;2.27;100.00;102092.59;4993252;28;20032;-78
2023/01/31 05:37:03;;;;;;;39.17;10.43;;;;;;;2.34;100.00;102094.78;5016021;28;20057;-78
2023/01/31 05:39:29;;;;;;;41.45;10.55;;;;;;;2.37;100.00;102087.88;5001342;28;20048;-78
2023/01/31 05:41:54;;;;;;;39.28;11.98;;;;;;;2.35;100.00;102077.69;4987481;28;20030;-78
2023/01/31 05:44:20;;;;;;;39.75;9.50;;;;;;;2.35;100.00;102080.25;4991563;28;20112;-79
2023/01/31 05:46:46;;;;;;;38.97;10.90;;;;;;;2.24;100.00;102079.91;5003468;28;20760;-79
2023/01/31 05:49:11;;;;;;;41.20;11.55;;;;;;;2.15;100.00;102081.19;5002812;28;20044;-79
2023/01/31 05:51:38;;;;;;;46.72;10.95;;;;;;;2.28;100.00;102078.88;4994213;28;20029;-78
2023/01/31 05:54:03;;;;;;;36.40;10.32;;;;;;;2.34;100.00;102076.88;5010161;28;20556;-79
2023/01/31 05:56:29;;;;;;;48.55;10.35;;;;;;;2.37;100.00;102069.94;5005721;28;20037;-79
2023/01/31 05:58:54;;;;;;;40.30;10.50;;;;;;;2.31;100.00;102060.81;5006264;28;20029;-78
2023/01/31 06:01:22;;;;;;;51.20;9.57;;;;;;;2.23;100.00;102068.03;5016181;28;20402;-78
2023/01/31 06:03:48;;;;;;;42.60;9.45;;;;;;;2.39;100.00;102063.84;5003637;28;20037;-78
2023/01/31 06:06:20;;;;;;;41.38;10.25;;;;;;;2.39;100.00;102060.47;4997423;28;20041;-81
2023/01/31 06:08:46;;;;;;;48.05;10.05;;;;;;;2.42;100.00;102057.78;5014635;28;20044;-80
2023/01/31 06:11:13;;;;;;;41.08;10.20;;;;;;;2.38;100.00;102051.97;5014533;28;20044;-80
2023/01/31 06:13:43;;;;;;;45.45;9.88;;;;;;;2.33;100.00;102052.16;4997455;28;20041;-78
2023/01/31 06:16:09;;;;;;;39.92;10.32;;;;;;;2.23;100.00;102061.19;5014150;28;20065;-78
2023/01/31 06:18:40;;;;;;;44.45;11.02;;;;;;;2.19;100.00;102069.91;4964825;28;20154;-79
2023/01/31 06:21:07;;;;;;;114.82;29.15;;;;;;;2.17;100.00;102065.75;4993926;28;20034;-79
2023/01/31 06:23:33;;;;;;;63.60;14.43;;;;;;;2.19;100.00;102064.78;4999512;28;20124;-78
2023/01/31 06:26:02;;;;;;;70.90;18.58;;;;;;;2.29;100.00;102071.13;4993876;28;20029;-78
2023/01/31 06:28:27;;;;;;;67.95;17.48;;;;;;;2.42;100.00;102068.00;5019876;28;20034;-78
2023/01/31 06:30:53;;;;;;;64.88;14.38;;;;;;;2.36;100.00;102068.31;5012084;28;20033;-78
2023/01/31 06:33:18;;;;;;;57.13;15.70;;;;;;;2.48;100.00;102072.84;5009983;28;20095;-78
2023/01/31 06:35:44;;;;;;;39.75;11.80;;;;;;;2.32;100.00;102075.28;5013361;28;20478;-78
2023/01/31 06:38:12;;;;;;;63.88;16.95;;;;;;;2.41;100.00;102064.63;4997737;28;20045;-78
2023/01/31 06:40:37;;;;;;;42.25;10.75;;;;;;;2.38;100.00;102069.06;4997943;28;20037;-78
2023/01/31 06:43:02;;;;;;;37.70;9.00;;;;;;;2.34;100.00;102064.06;4991274;28;20046;-78
2023/01/31 06:45:28;;;;;;;40.40;9.25;;;;;;;2.40;100.00;102068.06;4997901;28;20033;-79
2023/01/31 06:47:53;;;;;;;38.92;9.52;;;;;;;2.46;100.00;102069.53;5005587;28;20033;-78
2023/01/31 06:50:19;;;;;;;46.10;9.57;;;;;;;2.34;100.00;102083.72;5010461;28;20026;-78
2023/01/31 06:52:44;;;;;;;36.53;10.57;;;;;;;2.26;100.00;102089.22;4994104;28;20525;-77
2023/01/31 06:55:10;;;;;;;43.17;10.77;;;;;;;2.28;100.00;102087.41;4996197;28;20037;-78
2023/01/31 06:57:36;;;;;;;46.92;10.98;;;;;;;2.39;100.00;102084.31;4994429;28;20044;-78
2023/01/31 07:00:03;;;;;;;44.10;10.63;;;;;;;2.36;100.00;102083.66;5025655;28;20061;-78
2023/01/31 07:02:28;;;;;;;36.33;8.30;;;;;;;2.43;100.00;102083.31;5013506;28;20045;-78
2023/01/31 07:04:54;;;;;;;39.53;8.70;;;;;;;2.29;100.00;102072.88;5026043;28;20041;-77
2023/01/31 07:07:20;;;;;;;35.40;8.70;;;;;;;2.38;100.00;102081.84;5011904;28;20034;-77
2023/01/31 07:09:45;;;;;;;55.08;13.07;;;;;;;2.47;100.00;102078.88;5006976;28;20034;-77
2023/01/31 07:12:11;;;;;;;44.50;11.52;;;;;;;2.43;100.00;102069.66;5009668;28;20041;-78
2023/01/31 07:14:36;;;;;;;29.42;8.82;;;;;;;2.40;100.00;102062.97;4988342;28;22195;-77
2023/01/31 07:17:02;;;;;;;35.80;9.27;;;;;;;2.47;100.00;102069.44;5011883;28;20053;-78
2023/01/31 07:19:28;;;;;;;34.25;9.23;;;;;;;2.51;100.00;102065.03;4996567;28;20025;-77
2023/01/31 07:21:53;;;;;;;32.33;9.02;;;;;;;2.46;100.00;102070.34;5000893;28;20037;-76
2023/01/31 07:24:18;;;;;;;35.67;8.07;;;;;;;2.59;100.00;102057.78;5011250;28;20386;-77
2023/01/31 07:26:44;;;;;;;35.60;9.00;;;;;;;2.48;100.00;102047.22;5019090;28;20034;-77
2023/01/31 07:29:10;;;;;;;32.70;8.95;;;;;;;2.66;100.00;102037.84;4992272;28;20030;-77
2023/01/31 07:31:37;;;;;;;36.40;8.63;;;;;;;2.59;100.00;102028.78;5012814;28;20464;-76
2023/01/31 07:34:02;;;;;;;35.10;6.93;;;;;;;2.65;100.00;102034.44;5006626;28;20084;-78
2023/01/31 07:36:28;;;;;;;26.55;7.18;;;;;;;2.59;100.00;102036.47;5012510;28;20033;-76
2023/01/31 07:38:55;;;;;;;28.75;6.60;;;;;;;2.60;100.00;102036.41;5020867;28;20042;-78
2023/01/31 07:41:22;;;;;;;36.50;7.07;;;;;;;2.68;100.00;102036.03;5014604;28;20037;-78
2023/01/31 07:43:48;;;;;;;34.47;6.53;;;;;;;2.73;100.00;102021.25;5022664;28;20038;-77
2023/01/31 07:46:13;;;;;;;29.73;5.70;;;;;;;2.71;100.00;102023.06;5027982;28;20084;-78
2023/01/31 07:48:38;;;;;;;34.72;9.63;;;;;;;2.62;100.00;102018.38;4995371;28;20038;-80
2023/01/31 07:51:05;;;;;;;28.60;6.72;;;;;;;2.72;100.00;102027.28;5010770;28;20037;-78
2023/01/31 07:53:32;;;;;;;22.10;6.25;;;;;;;2.80;100.00;102037.97;4999947;28;20034;-78
2023/01/31 07:56:24;;;;;;;32.97;5.97;;;;;;;2.87;100.00;102036.78;5027272;28;20033;-78
2023/01/31 07:58:50;;;;;;;34.50;6.85;;;;;;;2.97;100.00;102044.03;5019307;28;20048;-78
2023/01/31 08:04:03;;;;;;;27.73;6.68;;;;;;;3.06;100.00;102028.19;5022992;28;20072;-78
2023/01/31 08:06:30;;;;;;;21.73;5.03;;;;;;;3.11;100.00;102016.81;4992733;28;20069;-76
2023/01/31 08:08:57;;;;;;;23.42;5.05;;;;;;;3.00;100.00;102016.50;5010351;28;20075;-76
2023/01/31 08:11:22;;;;;;;20.50;5.15;;;;;;;3.11;100.00;102005.72;4989303;28;20390;-77
2023/01/31 08:13:48;;;;;;;26.77;5.55;;;;;;;3.07;100.00;102001.63;5009413;28;20044;-77
2023/01/31 08:16:13;;;;;;;29.88;6.72;;;;;;;3.11;100.00;102006.53;5016975;28;20037;-78
2023/01/31 08:18:39;;;;;;;25.30;5.18;;;;;;;3.16;100.00;102006.28;5005651;28;20041;-80
2023/01/31 08:21:05;;;;;;;26.85;6.00;;;;;;;3.17;100.00;102010.53;5012876;28;23088;-77
2023/01/31 08:23:31;;;;;;;27.85;4.80;;;;;;;3.28;100.00;102002.28;5004673;28;20037;-76
2023/01/31 08:26:05;;;;;;;29.65;6.55;;;;;;;3.29;100.00;102004.75;5006757;28;20049;-77
2023/01/31 08:28:32;;;;;;;24.90;5.40;;;;;;;3.32;100.00;102011.47;5009170;28;20511;-77
2023/01/31 08:30:57;;;;;;;25.10;4.80;;;;;;;3.26;100.00;102012.63;5007089;28;20032;-77
2023/01/31 08:33:23;;;;;;;21.38;5.25;;;;;;;3.26;100.00;102010.06;5009057;28;20037;-78
2023/01/31 08:35:49;;;;;;;29.02;5.40;;;;;;;3.30;100.00;102003.03;5010345;28;20033;-78
2023/01/31 08:38:15;;;;;;;17.48;4.45;;;;;;;3.27;100.00;102016.84;4991963;28;20068;-78
2023/01/31 08:40:40;;;;;;;26.95;5.15;;;;;;;3.18;100.00;102025.00;5012667;28;20386;-79
2023/01/31 08:43:07;;;;;;;22.60;4.53;;;;;;;3.15;100.00;101996.16;4999049;28;20033;-79
2023/01/31 08:45:32;;;;;;;27.25;4.60;;;;;;;3.17;100.00;102002.84;4994124;28;20457;-80
2023/01/31 08:47:59;;;;;;;23.98;5.13;;;;;;;3.21;100.00;102009.47;5011760;28;20037;-79
2023/01/31 08:50:27;;;;;;;30.95;5.53;;;;;;;3.27;100.00;102005.75;4996300;28;20029;-80
2023/01/31 08:52:54;;;;;;;27.00;6.45;;;;;;;3.27;100.00;101985.25;5006244;28;20033;-78
2023/01/31 08:55:20;;;;;;;24.73;4.63;;;;;;;3.29;100.00;101988.56;5007122;28;20036;-79
2023/01/31 08:57:45;;;;;;;27.02;4.38;;;;;;;3.25;100.00;101982.75;5009963;28;20079;-79
2023/01/31 09:00:11;;;;;;;27.60;5.55;;;;;;;3.30;100.00;101980.78;5007992;28;20116;-79
2023/01/31 09:02:37;;;;;;;28.50;4.82;;;;;;;3.40;100.00;101977.75;4990333;28;20033;-79
2023/01/31 09:05:03;;;;;;;25.65;5.20;;;;;;;3.37;100.00;101967.63;5008944;28;20445;-78
2023/01/31 09:07:28;;;;;;;25.08;4.18;;;;;;;3.48;100.00;101965.34;4995304;28;20034;-79
2023/01/31 09:09:54;;;;;;;23.67;4.38;;;;;;;3.45;100.00;101961.22;4997937;28;20025;-79
2023/01/31 09:12:19;;;;;;;25.08;4.00;;;;;;;3.64;100.00;101963.63;5014835;28;20034;-79
2023/01/31 09:14:44;;;;;;;20.75;3.97;;;;;;;3.61;100.00;101953.50;4990698;28;20051;-79
2023/01/31 09:17:10;;;;;;;23.58;4.00;;;;;;;3.66;100.00;101960.97;5025441;28;20041;-78
2023/01/31 09:19:36;;;;;;;18.08;3.80;;;;;;;3.81;100.00;101946.50;5011818;28;20033;-80
2023/01/31 09:22:02;;;;;;;29.92;5.38;;;;;;;3.81;100.00;101967.03;5007147;28;20041;-78
2023/01/31 09:24:27;;;;;;;22.85;6.28;;;;;;;3.77;100.00;101956.09;5010772;28;20037;-79
2023/01/31 09:26:54;;;;;;;19.13;4.20;;;;;;;3.84;100.00;101961.69;4981956;28;20030;-77
2023/01/31 09:29:19;;;;;;;23.50;4.00;;;;;;;3.77;100.00;101970.63;5027139;28;20033;-77
2023/01/31 09:31:45;;;;;;;25.25;4.22;;;;;;;3.85;100.00;101956.50;5026285;28;20594;-79
2023/01/31 09:34:10;;;;;;;30.30;4.72;;;;;;;3.86;100.00;101958.16;5000954;28;20026;-78
2023/01/31 09:36:36;;;;;;;21.50;4.13;;;;;;;3.95;100.00;101956.00;5014491;28;20038;-79
2023/01/31 09:39:01;;;;;;;19.65;3.78;;;;;;;4.07;100.00;101940.75;4999431;28;20041;-78
2023/01/31 09:41:44;;;;;;;17.15;4.07;;;;;;;4.20;100.00;101952.88;5005490;28;20022;-76
2023/01/31 09:44:21;;;;;;;22.83;3.92;;;;;;;4.16;100.00;101956.53;4999948;28;20038;-78
2023/01/31 09:46:58;;;;;;;23.80;4.93;;;;;;;4.29;100.00;101955.78;5006170;28;20132;-78
2023/01/31 09:49:31;;;;;;;22.02;4.30;;;;;;;4.32;100.00;101954.75;5006344;28;20474;-79
2023/01/31 09:52:01;;;;;;;;;;;;;;;4.35;100.00;101949.47;5027272;28;20048;-78
2023/01/31 09:54:33;;;;;;;22.23;4.65;;;;;;;4.43;100.00;101957.53;5010914;28;19913;-77
2023/01/31 09:57:10;;;;;;;26.27;5.53;;;;;;;4.38;100.00;101951.03;4998872;28;20049;-79
2023/01/31 09:59:38;;;;;;;14.95;3.88;;;;;;;4.33;100.00;101953.84;5001824;28;20040;-78
2023/01/31 10:02:29;;;;;;;25.75;4.55;;;;;;;4.33;100.00;101935.84;5015371;28;20049;-77
2023/01/31 10:05:20;;;;;;;24.05;5.00;;;;;;;4.39;100.00;101944.94;5009232;28;20041;-77
2023/01/31 10:08:15;;;;;;;24.67;4.18;;;;;;;4.50;100.00;101927.19;5014103;28;20060;-79
2023/01/31 10:10:59;;;;;;;30.25;6.03;;;;;;;4.53;100.00;101928.75;5014719;28;20129;-80
2023/01/31 10:13:50;;;;;;;24.40;4.40;;;;;;;4.68;100.00;101925.28;4995177;28;20061;-78
2023/01/31 10:16:35;;;;;;;19.80;4.65;;;;;;;4.65;100.00;101912.63;5008681;28;20033;-78
2023/01/31 10:19:10;;;;;;;32.53;6.57;;;;;;;4.73;100.00;101910.44;5019607;28;20060;-78
2023/01/31 10:21:43;;;;;;;27.27;5.90;;;;;;;4.76;100.00;101904.28;5028951;28;20108;-80
2023/01/31 10:24:33;;;;;;;12.07;4.57;;;;;;;4.94;100.00;101885.19;5005394;28;20046;-78
2023/01/31 10:27:18;;;;;;;29.80;5.80;;;;;;;5.02;100.00;101890.69;4993372;28;20076;-79
2023/01/31 10:29:50;;;;;;;24.67;5.28;;;;;;;5.04;100.00;101885.47;5024747;28;20041;-76
2023/01/31 10:32:27;;;;;;;23.02;4.50;;;;;;;5.05;100.00;101890.50;5003649;28;20092;-78
2023/01/31 10:35:16;;;;;;;17.90;4.97;;;;;;;5.05;100.00;101872.50;5007868;28;20061;-79
2023/01/31 10:37:52;;;;;;;23.92;6.03;;;;;;;5.04;100.00;101872.59;5025907;28;20498;-78
2023/01/31 10:40:34;;;;;;;25.80;5.93;;;;;;;5.21;100.00;101867.25;5009137;28;21240;-79
2023/01/31 10:43:12;;;;;;;19.15;4.90;;;;;;;5.30;100.00;101865.03;4993124;28;20038;-79
2023/01/31 10:45:38;;;;;;;29.65;5.28;;;;;;;5.32;100.00;101852.91;5005083;28;20642;-79
2023/01/31 10:48:25;;;;;;;24.25;5.28;;;;;;;5.47;100.00;101855.31;5006442;28;20041;-78
2023/01/31 10:50:50;;;;;;;22.52;4.75;;;;;;;5.58;100.00;101841.78;5010061;28;20025;-77
2023/01/31 10:54:03;;;;;;;13.43;4.65;;;;;;;5.59;100.00;101853.72;5019420;28;20624;-79
2023/01/31 10:56:39;;;;;;;27.10;6.13;;;;;;;5.73;100.00;101860.56;4969390;28;20050;-79
2023/01/31 10:59:19;;;;;;;21.58;5.63;;;;;;;5.69;100.00;101858.28;5007859;28;20041;-78
2023/01/31 11:01:45;;;;;;;21.42;5.53;;;;;;;5.79;100.00;101857.59;5011066;28;20390;-77
2023/01/31 11:04:23;;;;;;;18.42;4.65;;;;;;;5.78;100.00;101863.69;4992144;28;20030;-77
2023/01/31 11:06:49;;;;;;;23.42;5.18;;;;;;;5.73;100.00;101862.34;5011519;28;20080;-79
2023/01/31 11:09:15;;;;;;;18.55;4.82;;;;;;;5.82;100.00;101872.00;5024436;28;20033;-78
2023/01/31 11:11:54;;;;;;;25.45;5.18;;;;;;;5.83;100.00;101866.78;4999862;28;20060;-79
2023/01/31 11:14:20;;;;;;;31.00;5.50;;;;;;;5.75;99.89;101866.44;4999139;28;20026;-78
2023/01/31 11:16:47;;;;;;;23.85;4.75;;;;;;;5.69;99.57;101855.72;5004182;28;20029;-77
2023/01/31 11:19:29;;;;;;;31.58;5.43;;;;;;;5.65;100.00;101861.06;4995414;28;20128;-74
2023/01/31 11:21:55;;;;;;;23.73;6.32;;;;;;;5.59;100.00;101855.47;5011671;28;20081;-80
2023/01/31 11:24:24;;;;;;;19.60;4.57;;;;;;;5.59;100.00;101845.19;5009748;28;20112;-79
2023/01/31 11:27:00;;;;;;;21.00;5.55;;;;;;;5.64;100.00;101856.00;4995780;28;20033;-78
2023/01/31 11:29:35;;;;;;;22.67;4.80;;;;;;;5.61;100.00;101831.31;5015094;28;20046;-79
2023/01/31 11:32:05;;;;;;;20.80;5.13;;;;;;;5.68;100.00;101821.44;4994935;28;20502;-77
2023/01/31 11:34:32;;;;;;;24.17;5.50;;;;;;;5.44;100.00;101824.66;5019984;28;20386;-78